»·PEaware :: G1XAX PHNL-KLAX

G1XAX :: PHNL-KLAX

FLIGHT INFORMATION

Flight Status: Arrived
Operator: Privately registered:
United Kingdom
More flights under this callsign
Pilot: Jonathan Selby (1929)
Aircraft: AÉROSPATIALE-BAC CONCORDE
(CONC)
More flights by this aircraft type
Origin: PHNL Honolulu Intl
United States
Destination: KLAX Los Angeles Intl
United States
More flights between these airports :: More routes between these airports
Route: +LEENA 4
File this flight plan on PilotEdge
Remarks:
Altitude:
(Current/Filed)
600ft
Speed:
(Current/Filed)
1200kts
Departed: 01-Jan-15 12:34 PM
Arrived: 01-Jan-15 02:13 PM
Distance/Time
Traveled:
2217nm/1:39
Distance/Time
To Go:
Arrived

Flight Plot

Page will automatically refresh every two minutes.


Map Options




Map Legend


Flown Route
Filed Route
Departure Airport
Arrival Airport
Navaid (VOR, NDB)
Fix

Horizontal Profiles

Position Reports

Time Latitude Longitude Heading Altitude Ground
Speed
01-Jan-15 12:01 21.328140 -157.918322 45 32ft 0kts
01-Jan-15 12:02 21.328140 -157.918322 45 32ft 0kts
01-Jan-15 12:03 21.328140 -157.918322 45 32ft 0kts
01-Jan-15 12:04 21.328140 -157.918322 45 32ft 0kts
01-Jan-15 12:05 21.328140 -157.918322 45 32ft 0kts
01-Jan-15 12:06 21.328140 -157.918322 45 32ft 0kts
01-Jan-15 12:07 21.328140 -157.918322 45 32ft 0kts
01-Jan-15 12:08 21.328140 -157.918322 45 32ft 0kts
01-Jan-15 12:09 21.328140 -157.918322 45 32ft 0kts
01-Jan-15 12:10 21.328140 -157.918322 45 32ft 0kts
01-Jan-15 12:11 21.328140 -157.918322 45 32ft 0kts
01-Jan-15 12:12 21.327897 -157.918582 44 32ft 2kts
01-Jan-15 12:13 21.327832 -157.918652 45 32ft 0kts
01-Jan-15 12:14 21.327837 -157.918647 45 32ft 0kts
01-Jan-15 12:15 21.327842 -157.918642 45 32ft 0kts
01-Jan-15 12:16 21.327846 -157.918637 45 32ft 0kts
01-Jan-15 12:17 21.327851 -157.918632 45 32ft 0kts
01-Jan-15 12:18 21.328029 -157.918665 321 32ft 5kts
01-Jan-15 12:19 21.326857 -157.920631 238 32ft 8kts
01-Jan-15 12:20 21.326376 -157.921198 257 32ft 5kts
01-Jan-15 12:21 21.326310 -157.925308 268 32ft 19kts
01-Jan-15 12:22 21.326765 -157.929578 274 32ft 9kts
01-Jan-15 12:23 21.326800 -157.931372 269 32ft 6kts
01-Jan-15 12:24 21.326781 -157.934170 269 32ft 8kts
01-Jan-15 12:25 21.326805 -157.937300 270 32ft 18kts
01-Jan-15 12:26 21.326620 -157.943016 208 32ft 8kts
01-Jan-15 12:27 21.325261 -157.942532 90 32ft 5kts
01-Jan-15 12:28 21.325261 -157.942506 90 32ft 0kts
01-Jan-15 12:29 21.325261 -157.942497 90 32ft 0kts
01-Jan-15 12:30 21.325271 -157.925741 88 34ft 176kts
01-Jan-15 12:31 21.317217 -157.858889 99 3252ft 235kts
01-Jan-15 12:32 21.328634 -157.785039 58 5232ft 291kts
01-Jan-15 12:33 21.371755 -157.710366 55 7530ft 280kts
01-Jan-15 12:34 21.414992 -157.635942 55 9446ft 318kts
01-Jan-15 12:35 21.466960 -157.544833 60 11250ft 396kts
01-Jan-15 12:36 21.516368 -157.428937 65 15100ft 448kts
01-Jan-15 12:37 21.567983 -157.303609 63 19256ft 466kts
01-Jan-15 12:38 21.623364 -157.173589 63 21776ft 502kts
01-Jan-15 12:39 21.686143 -157.027729 63 21973ft 555kts
01-Jan-15 12:40 21.751840 -156.875273 63 28466ft 564kts
01-Jan-15 12:41 21.820777 -156.715601 63 31453ft 606kts
01-Jan-15 12:42 21.894147 -156.545653 64 33177ft 645kts
01-Jan-15 12:43 21.970885 -156.364894 64 34650ft 681kts
01-Jan-15 12:44 22.051897 -156.173779 64 36360ft 728kts
01-Jan-15 12:45 22.139055 -155.966257 64 37982ft 784kts
01-Jan-15 12:46 22.231707 -155.744016 65 39658ft 849kts
01-Jan-15 12:47 22.332861 -155.501125 65 41089ft 914kts
01-Jan-15 12:48 22.440378 -155.242854 65 42296ft 973kts
01-Jan-15 12:49 22.554235 -154.969115 65 43083ft 1016kts
01-Jan-15 12:50 22.671858 -154.685836 65 43796ft 1049kts
01-Jan-15 12:51 22.790246 -154.395603 65 44771ft 1072kts
01-Jan-15 12:52 22.912300 -154.096121 65 45603ft 1094kts
01-Jan-15 12:53 23.035813 -153.790492 65 46297ft 1113kts
01-Jan-15 12:54 23.161205 -153.478031 65 46975ft 1131kts
01-Jan-15 12:55 23.286065 -153.163500 66 47591ft 1146kts
01-Jan-15 12:56 23.412516 -152.841893 66 48039ft 1161kts
01-Jan-15 12:57 23.539623 -152.516832 66 48444ft 1175kts
01-Jan-15 12:58 23.667291 -152.188972 66 48453ft 1178kts
01-Jan-15 12:59 23.795554 -151.858387 66 48641ft 1179kts
01-Jan-15 13:00 23.923035 -151.528762 66 49750ft 1179kts
01-Jan-15 13:01 24.050544 -151.197755 66 50425ft 1179kts
01-Jan-15 13:02 24.175862 -150.865489 66 50776ft 1178kts
01-Jan-15 13:03 24.301204 -150.532975 67 50974ft 1178kts
01-Jan-15 13:04 24.424979 -150.200912 67 51105ft 1178kts
01-Jan-15 13:05 24.548355 -149.867117 67 51186ft 1177kts
01-Jan-15 13:06 24.670561 -149.533763 67 51258ft 1177kts
01-Jan-15 13:07 24.771250 -149.255717 67 51327ft 1177kts
01-Jan-15 13:08 24.891646 -148.921016 67 51393ft 1176kts
01-Jan-15 13:09 25.031060 -148.531472 67 51489ft 1176kts
01-Jan-15 13:10 25.131798 -148.248822 67 51548ft 1175kts
01-Jan-15 13:11 25.250948 -147.913187 67 51604ft 1175kts
01-Jan-15 13:12 25.369489 -147.575867 68 51638ft 1175kts
01-Jan-15 13:13 25.486024 -147.239812 68 51641ft 1176kts
01-Jan-15 13:14 25.602118 -146.901873 68 51706ft 1175kts
01-Jan-15 13:15 25.718323 -146.561176 68 51735ft 1176kts
01-Jan-15 13:16 26.702661 -143.542776 70 51914ft 1176kts
01-Jan-15 13:17 28.321203 -137.935552 72 52316ft 1174kts
01-Jan-15 13:18 29.700484 -132.182369 75 52644ft 1174kts
01-Jan-15 13:19 30.832542 -126.250625 78 53069ft 1174kts
01-Jan-15 13:20 31.046309 -124.913169 79 53115ft 1174kts
01-Jan-15 13:21 31.102302 -124.549081 79 53120ft 1174kts
01-Jan-15 13:22 31.143304 -124.278187 79 53141ft 1174kts
01-Jan-15 13:23 31.198983 -123.904429 80 53235ft 1174kts
01-Jan-15 13:24 31.253987 -123.526373 80 53322ft 1174kts
01-Jan-15 13:25 31.307490 -123.150505 80 53382ft 1173kts
01-Jan-15 13:26 31.359778 -122.773004 80 53416ft 1174kts
01-Jan-15 13:27 31.410983 -122.397543 80 53493ft 1173kts
01-Jan-15 13:28 31.461264 -122.019332 80 53535ft 1173kts
01-Jan-15 13:29 31.510278 -121.641843 81 53570ft 1173kts
01-Jan-15 13:30 31.562469 -121.262476 75 53632ft 1171kts
01-Jan-15 13:31 31.670957 -120.903719 64 53533ft 1169kts
01-Jan-15 13:32 31.817370 -120.563227 61 53620ft 1169kts
01-Jan-15 13:33 31.946062 -120.212386 66 53532ft 1171kts
01-Jan-15 13:34 32.123563 -119.892601 46 52688ft 1170kts
01-Jan-15 13:35 32.355655 -119.625047 40 53085ft 1166kts
01-Jan-15 13:36 32.595021 -119.384884 40 52867ft 1057kts
01-Jan-15 13:37 32.789680 -119.151985 49 50237ft 939kts
01-Jan-15 13:38 32.942538 -118.928745 48 48467ft 818kts
01-Jan-15 13:39 33.108762 -118.770059 14 43258ft 718kts
01-Jan-15 13:40 33.285624 -118.789457 326 37153ft 604kts
01-Jan-15 13:41 33.383002 -118.926948 287 30642ft 518kts
01-Jan-15 13:42 33.353814 -119.078964 223 25594ft 482kts
01-Jan-15 13:43 33.228348 -119.103509 158 22434ft 479kts
01-Jan-15 13:44 33.158726 -118.978535 91 18156ft 467kts
01-Jan-15 13:45 33.171634 -118.829333 73 16057ft 447kts
01-Jan-15 13:46 33.212571 -118.691523 67 13991ft 431kts
01-Jan-15 13:47 33.256611 -118.559477 64 13012ft 425kts
01-Jan-15 13:48 33.316653 -118.437331 53 12998ft 424kts
01-Jan-15 13:49 33.322630 -118.302060 101 13008ft 428kts
01-Jan-15 13:50 33.307032 -118.161078 95 12995ft 428kts
01-Jan-15 13:51 33.296209 -118.029232 95 12992ft 374kts
01-Jan-15 13:52 33.301634 -117.920711 48 12572ft 317kts
01-Jan-15 13:53 33.376258 -117.894466 340 11418ft 287kts
01-Jan-15 13:54 33.452952 -117.920510 339 10216ft 283kts
01-Jan-15 13:55 33.527892 -117.946409 339 8845ft 277kts
01-Jan-15 13:56 33.601538 -117.971880 339 7442ft 271kts
01-Jan-15 13:57 33.673991 -117.996929 339 6996ft 270kts
01-Jan-15 13:58 33.745261 -118.024930 335 6995ft 269kts
01-Jan-15 13:59 33.817576 -118.043090 9 7013ft 280kts
01-Jan-15 14:00 33.890456 -118.008460 20 6369ft 263kts
01-Jan-15 14:01 33.952019 -117.975499 21 5178ft 233kts
01-Jan-15 14:02 34.000127 -117.999372 271 5000ft 228kts
01-Jan-15 14:03 33.978673 -118.073072 249 4983ft 233kts
01-Jan-15 14:04 33.959988 -118.143342 262 3918ft 191kts
01-Jan-15 14:05 33.954995 -118.207098 267 3284ft 180kts
01-Jan-15 14:06 33.949486 -118.270622 260 1759ft 183kts
01-Jan-15 14:07 33.942708 -118.328861 265 1280ft 176kts
01-Jan-15 14:08 33.937285 -118.384043 263 153ft 149kts
01-Jan-15 14:09 33.936274 -118.403028 292 145ft 4kts
01-Jan-15 14:10 33.936454 -118.403481 298 145ft 5kts
01-Jan-15 14:11 33.938658 -118.405294 354 145ft 11kts

Navigation Log

Ident Type
1. PHNL Airport
2. LEENA Fix
3. KLAX Airport